<?xml version="1.0" encoding="UTF-8" standalone="no" ?>
<gpx xmlns="http://www.topografix.com/GPX/1/1" xmlns:xsi="http://www.w3.org/2001/XMLSchema-instance" xsi:schemaLocation="http://www.topografix.com/GPX/1/1 http://www.topografix.com/GPX/1/1/gpx.xsd" version="1.1" creator="VisuGPX - https://www.visugpx.com">
  <metadata>
    <name>83 - GR 49 vers le Lachens A/R sur la commune de La Bastide</name>
    <desc><![CDATA[GR 49 vers le Lachens A/R sur la commune de La Bastide]]></desc>
  </metadata>
  <trk>
    <name><![CDATA[bastide]]></name>
    <trkseg>
      <trkpt lat="43.73433" lon="6.62428">
        <ele>989.13</ele>
        <time>2015-09-10T07:45:46Z</time>
      </trkpt>
      <trkpt lat="43.73433" lon="6.62453">
        <ele>988.05</ele>
        <time>2015-09-10T07:47:40Z</time>
      </trkpt>
      <trkpt lat="43.73428" lon="6.62477">
        <ele>987.55</ele>
        <time>2015-09-10T07:48:02Z</time>
      </trkpt>
      <trkpt lat="43.73419" lon="6.625">
        <ele>989.62</ele>
        <time>2015-09-10T07:48:24Z</time>
      </trkpt>
      <trkpt lat="43.73403" lon="6.62512">
        <ele>988.66</ele>
        <time>2015-09-10T07:48:44Z</time>
      </trkpt>
      <trkpt lat="43.73385" lon="6.62517">
        <ele>989.14</ele>
        <time>2015-09-10T07:49:06Z</time>
      </trkpt>
      <trkpt lat="43.73383" lon="6.62542">
        <ele>993.71</ele>
        <time>2015-09-10T07:49:34Z</time>
      </trkpt>
      <trkpt lat="43.73385" lon="6.62567">
        <ele>997.49</ele>
        <time>2015-09-10T07:49:53Z</time>
      </trkpt>
      <trkpt lat="43.73395" lon="6.62588">
        <ele>999.87</ele>
        <time>2015-09-10T07:50:13Z</time>
      </trkpt>
      <trkpt lat="43.73408" lon="6.62607">
        <ele>1004.16</ele>
        <time>2015-09-10T07:53:24Z</time>
      </trkpt>
      <trkpt lat="43.73394" lon="6.62623">
        <ele>1004.03</ele>
        <time>2015-09-10T07:54:48Z</time>
      </trkpt>
      <trkpt lat="43.73381" lon="6.62643">
        <ele>1006.16</ele>
        <time>2015-09-10T07:55:09Z</time>
      </trkpt>
      <trkpt lat="43.73366" lon="6.62658">
        <ele>1007.36</ele>
        <time>2015-09-10T07:55:28Z</time>
      </trkpt>
      <trkpt lat="43.73349" lon="6.62668">
        <ele>1006.34</ele>
        <time>2015-09-10T07:55:52Z</time>
      </trkpt>
      <trkpt lat="43.73332" lon="6.62679">
        <ele>1006.8</ele>
        <time>2015-09-10T07:56:08Z</time>
      </trkpt>
      <trkpt lat="43.7332" lon="6.62697">
        <ele>1008.62</ele>
        <time>2015-09-10T07:56:31Z</time>
      </trkpt>
      <trkpt lat="43.73309" lon="6.62717">
        <ele>1010.05</ele>
        <time>2015-09-10T07:56:52Z</time>
      </trkpt>
      <trkpt lat="43.73298" lon="6.62738">
        <ele>1012.86</ele>
        <time>2015-09-10T07:57:17Z</time>
      </trkpt>
      <trkpt lat="43.73288" lon="6.62759">
        <ele>1015.51</ele>
        <time>2015-09-10T07:57:39Z</time>
      </trkpt>
      <trkpt lat="43.73273" lon="6.62774">
        <ele>1016.36</ele>
        <time>2015-09-10T07:58:02Z</time>
      </trkpt>
      <trkpt lat="43.73258" lon="6.62789">
        <ele>1018.17</ele>
        <time>2015-09-10T07:58:23Z</time>
      </trkpt>
      <trkpt lat="43.73244" lon="6.62806">
        <ele>1021.85</ele>
        <time>2015-09-10T07:58:47Z</time>
      </trkpt>
      <trkpt lat="43.73235" lon="6.62828">
        <ele>1024.89</ele>
        <time>2015-09-10T07:59:04Z</time>
      </trkpt>
      <trkpt lat="43.73223" lon="6.62848">
        <ele>1026.73</ele>
        <time>2015-09-10T07:59:18Z</time>
      </trkpt>
      <trkpt lat="43.73214" lon="6.6287">
        <ele>1030.27</ele>
        <time>2015-09-10T07:59:42Z</time>
      </trkpt>
      <trkpt lat="43.73224" lon="6.62891">
        <ele>1033.59</ele>
        <time>2015-09-10T08:00:04Z</time>
      </trkpt>
      <trkpt lat="43.73224" lon="6.62916">
        <ele>1036.51</ele>
        <time>2015-09-10T08:00:25Z</time>
      </trkpt>
      <trkpt lat="43.73219" lon="6.6294">
        <ele>1039.22</ele>
        <time>2015-09-10T08:00:42Z</time>
      </trkpt>
      <trkpt lat="43.73209" lon="6.62961">
        <ele>1041.23</ele>
        <time>2015-09-10T08:05:36Z</time>
      </trkpt>
      <trkpt lat="43.73199" lon="6.62982">
        <ele>1041.6</ele>
        <time>2015-09-10T08:05:56Z</time>
      </trkpt>
      <trkpt lat="43.73193" lon="6.63007">
        <ele>1043.59</ele>
        <time>2015-09-10T08:06:17Z</time>
      </trkpt>
      <trkpt lat="43.73184" lon="6.6303">
        <ele>1043.47</ele>
        <time>2015-09-10T08:06:35Z</time>
      </trkpt>
      <trkpt lat="43.73175" lon="6.63052">
        <ele>1043.26</ele>
        <time>2015-09-10T08:06:53Z</time>
      </trkpt>
      <trkpt lat="43.73168" lon="6.63076">
        <ele>1043.36</ele>
        <time>2015-09-10T08:07:16Z</time>
      </trkpt>
      <trkpt lat="43.73155" lon="6.63095">
        <ele>1045.61</ele>
        <time>2015-09-10T08:07:39Z</time>
      </trkpt>
      <trkpt lat="43.73141" lon="6.63113">
        <ele>1046.83</ele>
        <time>2015-09-10T08:08:01Z</time>
      </trkpt>
      <trkpt lat="43.73126" lon="6.63129">
        <ele>1049.92</ele>
        <time>2015-09-10T08:08:21Z</time>
      </trkpt>
      <trkpt lat="43.7312" lon="6.63152">
        <ele>1052.95</ele>
        <time>2015-09-10T08:08:37Z</time>
      </trkpt>
      <trkpt lat="43.73122" lon="6.63177">
        <ele>1054.91</ele>
        <time>2015-09-10T08:08:56Z</time>
      </trkpt>
      <trkpt lat="43.73118" lon="6.63203">
        <ele>1056.73</ele>
        <time>2015-09-10T08:09:13Z</time>
      </trkpt>
      <trkpt lat="43.73117" lon="6.63229">
        <ele>1058.11</ele>
        <time>2015-09-10T08:09:30Z</time>
      </trkpt>
      <trkpt lat="43.73115" lon="6.63255">
        <ele>1058.45</ele>
        <time>2015-09-10T08:09:49Z</time>
      </trkpt>
      <trkpt lat="43.73114" lon="6.63279">
        <ele>1058.24</ele>
        <time>2015-09-10T08:10:04Z</time>
      </trkpt>
      <trkpt lat="43.73111" lon="6.63306">
        <ele>1058.49</ele>
        <time>2015-09-10T08:10:22Z</time>
      </trkpt>
      <trkpt lat="43.73108" lon="6.63331">
        <ele>1058.42</ele>
        <time>2015-09-10T08:10:42Z</time>
      </trkpt>
      <trkpt lat="43.73104" lon="6.63356">
        <ele>1059.14</ele>
        <time>2015-09-10T08:11:01Z</time>
      </trkpt>
      <trkpt lat="43.73098" lon="6.6338">
        <ele>1059.68</ele>
        <time>2015-09-10T08:11:21Z</time>
      </trkpt>
      <trkpt lat="43.73094" lon="6.63405">
        <ele>1061.04</ele>
        <time>2015-09-10T08:11:42Z</time>
      </trkpt>
      <trkpt lat="43.73086" lon="6.6343">
        <ele>1062.81</ele>
        <time>2015-09-10T08:12:02Z</time>
      </trkpt>
      <trkpt lat="43.73081" lon="6.63454">
        <ele>1064.24</ele>
        <time>2015-09-10T08:12:23Z</time>
      </trkpt>
      <trkpt lat="43.73069" lon="6.63474">
        <ele>1064.81</ele>
        <time>2015-09-10T08:12:42Z</time>
      </trkpt>
      <trkpt lat="43.73056" lon="6.63493">
        <ele>1065.95</ele>
        <time>2015-09-10T08:13:01Z</time>
      </trkpt>
      <trkpt lat="43.73046" lon="6.63514">
        <ele>1066.4</ele>
        <time>2015-09-10T08:13:20Z</time>
      </trkpt>
      <trkpt lat="43.73036" lon="6.63536">
        <ele>1067.66</ele>
        <time>2015-09-10T08:13:44Z</time>
      </trkpt>
      <trkpt lat="43.73019" lon="6.63546">
        <ele>1068.95</ele>
        <time>2015-09-10T08:14:02Z</time>
      </trkpt>
      <trkpt lat="43.73" lon="6.63549">
        <ele>1069.75</ele>
        <time>2015-09-10T08:14:22Z</time>
      </trkpt>
      <trkpt lat="43.72982" lon="6.63552">
        <ele>1069.45</ele>
        <time>2015-09-10T08:14:39Z</time>
      </trkpt>
      <trkpt lat="43.72965" lon="6.63542">
        <ele>1069.74</ele>
        <time>2015-09-10T08:15:03Z</time>
      </trkpt>
      <trkpt lat="43.72947" lon="6.63537">
        <ele>1069.63</ele>
        <time>2015-09-10T08:15:21Z</time>
      </trkpt>
      <trkpt lat="43.72931" lon="6.63527">
        <ele>1069.08</ele>
        <time>2015-09-10T08:15:42Z</time>
      </trkpt>
      <trkpt lat="43.72912" lon="6.63525">
        <ele>1066.53</ele>
        <time>2015-09-10T08:16:00Z</time>
      </trkpt>
      <trkpt lat="43.72893" lon="6.63523">
        <ele>1064.76</ele>
        <time>2015-09-10T08:16:17Z</time>
      </trkpt>
      <trkpt lat="43.72875" lon="6.63528">
        <ele>1065.51</ele>
        <time>2015-09-10T08:16:33Z</time>
      </trkpt>
      <trkpt lat="43.72857" lon="6.63531">
        <ele>1065.47</ele>
        <time>2015-09-10T08:16:49Z</time>
      </trkpt>
      <trkpt lat="43.72841" lon="6.63541">
        <ele>1065.15</ele>
        <time>2015-09-10T08:17:08Z</time>
      </trkpt>
      <trkpt lat="43.72824" lon="6.63554">
        <ele>1066.12</ele>
        <time>2015-09-10T08:17:33Z</time>
      </trkpt>
      <trkpt lat="43.72816" lon="6.63577">
        <ele>1066.82</ele>
        <time>2015-09-10T08:18:02Z</time>
      </trkpt>
      <trkpt lat="43.72803" lon="6.63595">
        <ele>1066.96</ele>
        <time>2015-09-10T08:18:19Z</time>
      </trkpt>
      <trkpt lat="43.72789" lon="6.63612">
        <ele>1066.68</ele>
        <time>2015-09-10T08:18:38Z</time>
      </trkpt>
      <trkpt lat="43.72777" lon="6.63631">
        <ele>1067.03</ele>
        <time>2015-09-10T08:18:56Z</time>
      </trkpt>
      <trkpt lat="43.72762" lon="6.63647">
        <ele>1067.22</ele>
        <time>2015-09-10T08:19:18Z</time>
      </trkpt>
      <trkpt lat="43.72746" lon="6.63659">
        <ele>1066.1</ele>
        <time>2015-09-10T08:19:40Z</time>
      </trkpt>
      <trkpt lat="43.72736" lon="6.63681">
        <ele>1066.15</ele>
        <time>2015-09-10T08:19:55Z</time>
      </trkpt>
      <trkpt lat="43.72733" lon="6.63705">
        <ele>1066.04</ele>
        <time>2015-09-10T08:20:14Z</time>
      </trkpt>
      <trkpt lat="43.72734" lon="6.63731">
        <ele>1066.03</ele>
        <time>2015-09-10T08:20:33Z</time>
      </trkpt>
      <trkpt lat="43.72737" lon="6.63757">
        <ele>1065.56</ele>
        <time>2015-09-10T08:20:51Z</time>
      </trkpt>
      <trkpt lat="43.72739" lon="6.63783">
        <ele>1065.47</ele>
        <time>2015-09-10T08:21:10Z</time>
      </trkpt>
      <trkpt lat="43.72744" lon="6.63807">
        <ele>1066.18</ele>
        <time>2015-09-10T08:21:30Z</time>
      </trkpt>
      <trkpt lat="43.72751" lon="6.6383">
        <ele>1068.35</ele>
        <time>2015-09-10T08:21:52Z</time>
      </trkpt>
      <trkpt lat="43.72753" lon="6.63856">
        <ele>1068.58</ele>
        <time>2015-09-10T08:22:13Z</time>
      </trkpt>
      <trkpt lat="43.7275" lon="6.6388">
        <ele>1069.71</ele>
        <time>2015-09-10T08:22:33Z</time>
      </trkpt>
      <trkpt lat="43.72753" lon="6.63905">
        <ele>1072.2</ele>
        <time>2015-09-10T08:23:02Z</time>
      </trkpt>
      <trkpt lat="43.72763" lon="6.63927">
        <ele>1076.13</ele>
        <time>2015-09-10T08:37:00Z</time>
      </trkpt>
      <trkpt lat="43.72768" lon="6.63951">
        <ele>1077.22</ele>
        <time>2015-09-10T08:37:23Z</time>
      </trkpt>
      <trkpt lat="43.72777" lon="6.63974">
        <ele>1077.4</ele>
        <time>2015-09-10T08:37:43Z</time>
      </trkpt>
      <trkpt lat="43.72793" lon="6.63986">
        <ele>1076.24</ele>
        <time>2015-09-10T08:38:01Z</time>
      </trkpt>
      <trkpt lat="43.72809" lon="6.64">
        <ele>1076.67</ele>
        <time>2015-09-10T08:38:18Z</time>
      </trkpt>
      <trkpt lat="43.72826" lon="6.64009">
        <ele>1078.53</ele>
        <time>2015-09-10T08:38:41Z</time>
      </trkpt>
      <trkpt lat="43.72844" lon="6.64013">
        <ele>1079.25</ele>
        <time>2015-09-10T08:39:00Z</time>
      </trkpt>
      <trkpt lat="43.72859" lon="6.64027">
        <ele>1079.44</ele>
        <time>2015-09-10T08:39:19Z</time>
      </trkpt>
      <trkpt lat="43.72877" lon="6.64032">
        <ele>1080.14</ele>
        <time>2015-09-10T08:39:39Z</time>
      </trkpt>
      <trkpt lat="43.72896" lon="6.64033">
        <ele>1080.16</ele>
        <time>2015-09-10T08:40:00Z</time>
      </trkpt>
      <trkpt lat="43.72912" lon="6.64044">
        <ele>1081.89</ele>
        <time>2015-09-10T08:40:21Z</time>
      </trkpt>
      <trkpt lat="43.72927" lon="6.64059">
        <ele>1082.8</ele>
        <time>2015-09-10T08:40:39Z</time>
      </trkpt>
      <trkpt lat="43.72935" lon="6.64082">
        <ele>1083.21</ele>
        <time>2015-09-10T08:40:59Z</time>
      </trkpt>
      <trkpt lat="43.72922" lon="6.64102">
        <ele>1083.91</ele>
        <time>2015-09-10T08:41:18Z</time>
      </trkpt>
      <trkpt lat="43.72905" lon="6.64114">
        <ele>1085.04</ele>
        <time>2015-09-10T08:41:37Z</time>
      </trkpt>
      <trkpt lat="43.72885" lon="6.64105">
        <ele>1082.95</ele>
        <time>2015-09-10T08:42:03Z</time>
      </trkpt>
      <trkpt lat="43.72866" lon="6.64097">
        <ele>1082.31</ele>
        <time>2015-09-10T08:42:20Z</time>
      </trkpt>
      <trkpt lat="43.72849" lon="6.64087">
        <ele>1082.34</ele>
        <time>2015-09-10T08:42:40Z</time>
      </trkpt>
      <trkpt lat="43.7283" lon="6.6408">
        <ele>1078.47</ele>
        <time>2015-09-10T08:43:00Z</time>
      </trkpt>
      <trkpt lat="43.72811" lon="6.64076">
        <ele>1075.93</ele>
        <time>2015-09-10T08:43:16Z</time>
      </trkpt>
      <trkpt lat="43.72794" lon="6.64067">
        <ele>1073.12</ele>
        <time>2015-09-10T08:43:34Z</time>
      </trkpt>
      <trkpt lat="43.72777" lon="6.64058">
        <ele>1070.6</ele>
        <time>2015-09-10T08:43:53Z</time>
      </trkpt>
      <trkpt lat="43.72759" lon="6.6405">
        <ele>1068.85</ele>
        <time>2015-09-10T08:44:12Z</time>
      </trkpt>
      <trkpt lat="43.72742" lon="6.64042">
        <ele>1065.64</ele>
        <time>2015-09-10T08:44:30Z</time>
      </trkpt>
      <trkpt lat="43.72724" lon="6.64042">
        <ele>1062.48</ele>
        <time>2015-09-10T08:44:50Z</time>
      </trkpt>
      <trkpt lat="43.72739" lon="6.64056">
        <ele>1056.89</ele>
        <time>2015-09-10T08:45:52Z</time>
      </trkpt>
      <trkpt lat="43.72756" lon="6.64064">
        <ele>1056.73</ele>
        <time>2015-09-10T08:46:11Z</time>
      </trkpt>
      <trkpt lat="43.72774" lon="6.64071">
        <ele>1057.41</ele>
        <time>2015-09-10T08:46:31Z</time>
      </trkpt>
      <trkpt lat="43.72789" lon="6.64087">
        <ele>1058.69</ele>
        <time>2015-09-10T08:46:53Z</time>
      </trkpt>
      <trkpt lat="43.72803" lon="6.64103">
        <ele>1059.69</ele>
        <time>2015-09-10T08:47:09Z</time>
      </trkpt>
      <trkpt lat="43.72814" lon="6.64123">
        <ele>1060.67</ele>
        <time>2015-09-10T08:47:27Z</time>
      </trkpt>
      <trkpt lat="43.72829" lon="6.64138">
        <ele>1061.33</ele>
        <time>2015-09-10T08:47:43Z</time>
      </trkpt>
      <trkpt lat="43.72844" lon="6.64154">
        <ele>1061.18</ele>
        <time>2015-09-10T08:48:02Z</time>
      </trkpt>
      <trkpt lat="43.72858" lon="6.64171">
        <ele>1059.64</ele>
        <time>2015-09-10T08:48:23Z</time>
      </trkpt>
      <trkpt lat="43.72871" lon="6.64194">
        <ele>1058</ele>
        <time>2015-09-10T08:48:47Z</time>
      </trkpt>
      <trkpt lat="43.72885" lon="6.6421">
        <ele>1059.67</ele>
        <time>2015-09-10T08:49:10Z</time>
      </trkpt>
      <trkpt lat="43.72899" lon="6.64225">
        <ele>1062.17</ele>
        <time>2015-09-10T08:49:36Z</time>
      </trkpt>
      <trkpt lat="43.72916" lon="6.64236">
        <ele>1064.56</ele>
        <time>2015-09-10T08:49:57Z</time>
      </trkpt>
      <trkpt lat="43.72923" lon="6.64259">
        <ele>1067.21</ele>
        <time>2015-09-10T08:50:16Z</time>
      </trkpt>
      <trkpt lat="43.72932" lon="6.64282">
        <ele>1068.86</ele>
        <time>2015-09-10T08:51:38Z</time>
      </trkpt>
      <trkpt lat="43.72931" lon="6.64308">
        <ele>1065.52</ele>
        <time>2015-09-10T08:51:55Z</time>
      </trkpt>
      <trkpt lat="43.72933" lon="6.64333">
        <ele>1064.75</ele>
        <time>2015-09-10T08:52:15Z</time>
      </trkpt>
      <trkpt lat="43.7294" lon="6.64356">
        <ele>1068.79</ele>
        <time>2015-09-10T08:52:32Z</time>
      </trkpt>
      <trkpt lat="43.72948" lon="6.6438">
        <ele>1074.34</ele>
        <time>2015-09-10T08:53:03Z</time>
      </trkpt>
      <trkpt lat="43.72954" lon="6.64404">
        <ele>1079.33</ele>
        <time>2015-09-10T08:53:33Z</time>
      </trkpt>
      <trkpt lat="43.7296" lon="6.64428">
        <ele>1082.01</ele>
        <time>2015-09-10T08:54:05Z</time>
      </trkpt>
      <trkpt lat="43.72945" lon="6.64444">
        <ele>1086.32</ele>
        <time>2015-09-10T08:54:41Z</time>
      </trkpt>
      <trkpt lat="43.72937" lon="6.64467">
        <ele>1088.17</ele>
        <time>2015-09-10T08:55:05Z</time>
      </trkpt>
      <trkpt lat="43.72929" lon="6.64489">
        <ele>1091.44</ele>
        <time>2015-09-10T08:55:33Z</time>
      </trkpt>
      <trkpt lat="43.72921" lon="6.64512">
        <ele>1095.28</ele>
        <time>2015-09-10T08:56:02Z</time>
      </trkpt>
      <trkpt lat="43.72917" lon="6.64536">
        <ele>1098.57</ele>
        <time>2015-09-10T08:56:29Z</time>
      </trkpt>
      <trkpt lat="43.72917" lon="6.64561">
        <ele>1102.23</ele>
        <time>2015-09-10T08:56:56Z</time>
      </trkpt>
      <trkpt lat="43.7293" lon="6.6458">
        <ele>1106.68</ele>
        <time>2015-09-10T08:57:23Z</time>
      </trkpt>
      <trkpt lat="43.72942" lon="6.64599">
        <ele>1109.71</ele>
        <time>2015-09-10T08:57:49Z</time>
      </trkpt>
      <trkpt lat="43.72953" lon="6.6462">
        <ele>1112.13</ele>
        <time>2015-09-10T08:58:13Z</time>
      </trkpt>
      <trkpt lat="43.72969" lon="6.64634">
        <ele>1113.77</ele>
        <time>2015-09-10T08:58:35Z</time>
      </trkpt>
      <trkpt lat="43.72984" lon="6.64647">
        <ele>1115.21</ele>
        <time>2015-09-10T08:58:53Z</time>
      </trkpt>
      <trkpt lat="43.73002" lon="6.64652">
        <ele>1116.42</ele>
        <time>2015-09-10T08:59:11Z</time>
      </trkpt>
      <trkpt lat="43.73019" lon="6.64666">
        <ele>1117.92</ele>
        <time>2015-09-10T08:59:31Z</time>
      </trkpt>
      <trkpt lat="43.73035" lon="6.64676">
        <ele>1119.34</ele>
        <time>2015-09-10T08:59:49Z</time>
      </trkpt>
      <trkpt lat="43.73053" lon="6.64683">
        <ele>1121.07</ele>
        <time>2015-09-10T09:00:08Z</time>
      </trkpt>
      <trkpt lat="43.73069" lon="6.64694">
        <ele>1120.25</ele>
        <time>2015-09-10T09:00:28Z</time>
      </trkpt>
      <trkpt lat="43.73083" lon="6.64711">
        <ele>1120.91</ele>
        <time>2015-09-10T09:00:52Z</time>
      </trkpt>
      <trkpt lat="43.73091" lon="6.64733">
        <ele>1121.25</ele>
        <time>2015-09-10T09:01:09Z</time>
      </trkpt>
      <trkpt lat="43.731" lon="6.64756">
        <ele>1121.69</ele>
        <time>2015-09-10T09:01:27Z</time>
      </trkpt>
      <trkpt lat="43.73114" lon="6.64772">
        <ele>1120.46</ele>
        <time>2015-09-10T09:01:55Z</time>
      </trkpt>
      <trkpt lat="43.73128" lon="6.64788">
        <ele>1121.09</ele>
        <time>2015-09-10T09:02:47Z</time>
      </trkpt>
      <trkpt lat="43.73142" lon="6.64804">
        <ele>1124.2</ele>
        <time>2015-09-10T09:03:13Z</time>
      </trkpt>
      <trkpt lat="43.73144" lon="6.6483">
        <ele>1125.19</ele>
        <time>2015-09-10T09:03:31Z</time>
      </trkpt>
      <trkpt lat="43.73142" lon="6.64856">
        <ele>1127.07</ele>
        <time>2015-09-10T09:03:51Z</time>
      </trkpt>
      <trkpt lat="43.73146" lon="6.64882">
        <ele>1130.21</ele>
        <time>2015-09-10T09:04:14Z</time>
      </trkpt>
      <trkpt lat="43.7315" lon="6.64906">
        <ele>1132.67</ele>
        <time>2015-09-10T09:04:37Z</time>
      </trkpt>
      <trkpt lat="43.73163" lon="6.64925">
        <ele>1134.07</ele>
        <time>2015-09-10T09:05:17Z</time>
      </trkpt>
      <trkpt lat="43.73179" lon="6.64937">
        <ele>1134.68</ele>
        <time>2015-09-10T09:05:34Z</time>
      </trkpt>
      <trkpt lat="43.73194" lon="6.64949">
        <ele>1136.49</ele>
        <time>2015-09-10T09:05:53Z</time>
      </trkpt>
      <trkpt lat="43.73206" lon="6.64969">
        <ele>1137.21</ele>
        <time>2015-09-10T09:06:14Z</time>
      </trkpt>
      <trkpt lat="43.73211" lon="6.64995">
        <ele>1137.79</ele>
        <time>2015-09-10T09:06:33Z</time>
      </trkpt>
      <trkpt lat="43.73217" lon="6.65019">
        <ele>1138.19</ele>
        <time>2015-09-10T09:06:49Z</time>
      </trkpt>
      <trkpt lat="43.73222" lon="6.65043">
        <ele>1138.19</ele>
        <time>2015-09-10T09:07:08Z</time>
      </trkpt>
      <trkpt lat="43.73228" lon="6.65068">
        <ele>1139.7</ele>
        <time>2015-09-10T09:07:25Z</time>
      </trkpt>
      <trkpt lat="43.73232" lon="6.65092">
        <ele>1140.8</ele>
        <time>2015-09-10T09:07:42Z</time>
      </trkpt>
      <trkpt lat="43.73237" lon="6.65117">
        <ele>1140.9</ele>
        <time>2015-09-10T09:07:59Z</time>
      </trkpt>
      <trkpt lat="43.73242" lon="6.65143">
        <ele>1141.36</ele>
        <time>2015-09-10T09:08:20Z</time>
      </trkpt>
      <trkpt lat="43.73243" lon="6.65168">
        <ele>1140.02</ele>
        <time>2015-09-10T09:08:37Z</time>
      </trkpt>
      <trkpt lat="43.73248" lon="6.65192">
        <ele>1138.82</ele>
        <time>2015-09-10T09:08:55Z</time>
      </trkpt>
      <trkpt lat="43.73255" lon="6.65216">
        <ele>1138.73</ele>
        <time>2015-09-10T09:09:10Z</time>
      </trkpt>
      <trkpt lat="43.73264" lon="6.65239">
        <ele>1139.43</ele>
        <time>2015-09-10T09:09:27Z</time>
      </trkpt>
      <trkpt lat="43.73268" lon="6.65264">
        <ele>1139.41</ele>
        <time>2015-09-10T09:09:42Z</time>
      </trkpt>
      <trkpt lat="43.73269" lon="6.65289">
        <ele>1139.39</ele>
        <time>2015-09-10T09:09:59Z</time>
      </trkpt>
      <trkpt lat="43.73272" lon="6.65314">
        <ele>1139</ele>
        <time>2015-09-10T09:10:16Z</time>
      </trkpt>
      <trkpt lat="43.7328" lon="6.65337">
        <ele>1138.61</ele>
        <time>2015-09-10T09:10:47Z</time>
      </trkpt>
      <trkpt lat="43.7329" lon="6.65358">
        <ele>1136.61</ele>
        <time>2015-09-10T09:11:05Z</time>
      </trkpt>
      <trkpt lat="43.73301" lon="6.65379">
        <ele>1135.91</ele>
        <time>2015-09-10T09:11:24Z</time>
      </trkpt>
      <trkpt lat="43.73313" lon="6.65401">
        <ele>1135.6</ele>
        <time>2015-09-10T09:11:42Z</time>
      </trkpt>
      <trkpt lat="43.73325" lon="6.6542">
        <ele>1135.93</ele>
        <time>2015-09-10T09:11:58Z</time>
      </trkpt>
      <trkpt lat="43.73338" lon="6.65439">
        <ele>1135.67</ele>
        <time>2015-09-10T09:12:16Z</time>
      </trkpt>
      <trkpt lat="43.7335" lon="6.65458">
        <ele>1135.91</ele>
        <time>2015-09-10T09:12:34Z</time>
      </trkpt>
      <trkpt lat="43.73362" lon="6.65478">
        <ele>1136.1</ele>
        <time>2015-09-10T09:12:50Z</time>
      </trkpt>
      <trkpt lat="43.73371" lon="6.655">
        <ele>1136.73</ele>
        <time>2015-09-10T09:13:07Z</time>
      </trkpt>
      <trkpt lat="43.73366" lon="6.65524">
        <ele>1138.96</ele>
        <time>2015-09-10T09:13:30Z</time>
      </trkpt>
      <trkpt lat="43.73356" lon="6.65545">
        <ele>1140.95</ele>
        <time>2015-09-10T09:13:59Z</time>
      </trkpt>
      <trkpt lat="43.73363" lon="6.65569">
        <ele>1141.66</ele>
        <time>2015-09-10T09:14:19Z</time>
      </trkpt>
      <trkpt lat="43.73373" lon="6.65591">
        <ele>1142.83</ele>
        <time>2015-09-10T09:14:39Z</time>
      </trkpt>
      <trkpt lat="43.73386" lon="6.6561">
        <ele>1143.62</ele>
        <time>2015-09-10T09:14:58Z</time>
      </trkpt>
      <trkpt lat="43.73394" lon="6.65634">
        <ele>1144</ele>
        <time>2015-09-10T09:15:18Z</time>
      </trkpt>
      <trkpt lat="43.73404" lon="6.65656">
        <ele>1144.33</ele>
        <time>2015-09-10T09:15:37Z</time>
      </trkpt>
      <trkpt lat="43.7341" lon="6.65679">
        <ele>1144.83</ele>
        <time>2015-09-10T09:15:57Z</time>
      </trkpt>
      <trkpt lat="43.7342" lon="6.65701">
        <ele>1146.32</ele>
        <time>2015-09-10T09:16:18Z</time>
      </trkpt>
      <trkpt lat="43.73424" lon="6.65726">
        <ele>1147.88</ele>
        <time>2015-09-10T09:16:37Z</time>
      </trkpt>
      <trkpt lat="43.73422" lon="6.65751">
        <ele>1150.68</ele>
        <time>2015-09-10T09:17:02Z</time>
      </trkpt>
      <trkpt lat="43.73424" lon="6.65776">
        <ele>1152.89</ele>
        <time>2015-09-10T09:17:24Z</time>
      </trkpt>
      <trkpt lat="43.73425" lon="6.65801">
        <ele>1157.15</ele>
        <time>2015-09-10T09:17:53Z</time>
      </trkpt>
      <trkpt lat="43.7342" lon="6.65825">
        <ele>1160.25</ele>
        <time>2015-09-10T09:18:17Z</time>
      </trkpt>
      <trkpt lat="43.73418" lon="6.6585">
        <ele>1162.87</ele>
        <time>2015-09-10T09:18:40Z</time>
      </trkpt>
      <trkpt lat="43.73417" lon="6.65876">
        <ele>1165.02</ele>
        <time>2015-09-10T09:19:02Z</time>
      </trkpt>
      <trkpt lat="43.73414" lon="6.65901">
        <ele>1167.32</ele>
        <time>2015-09-10T09:19:22Z</time>
      </trkpt>
      <trkpt lat="43.73418" lon="6.65926">
        <ele>1169.69</ele>
        <time>2015-09-10T09:19:41Z</time>
      </trkpt>
      <trkpt lat="43.73416" lon="6.65951">
        <ele>1170.86</ele>
        <time>2015-09-10T09:19:59Z</time>
      </trkpt>
      <trkpt lat="43.73413" lon="6.65976">
        <ele>1173.53</ele>
        <time>2015-09-10T09:20:19Z</time>
      </trkpt>
      <trkpt lat="43.7342" lon="6.65999">
        <ele>1174.28</ele>
        <time>2015-09-10T09:20:46Z</time>
      </trkpt>
      <trkpt lat="43.73438" lon="6.66005">
        <ele>1177.13</ele>
        <time>2015-09-10T09:21:11Z</time>
      </trkpt>
      <trkpt lat="43.73455" lon="6.66014">
        <ele>1179.26</ele>
        <time>2015-09-10T09:21:39Z</time>
      </trkpt>
      <trkpt lat="43.73468" lon="6.66032">
        <ele>1181.18</ele>
        <time>2015-09-10T09:22:02Z</time>
      </trkpt>
      <trkpt lat="43.73482" lon="6.66047">
        <ele>1183.4</ele>
        <time>2015-09-10T09:22:23Z</time>
      </trkpt>
      <trkpt lat="43.73497" lon="6.66062">
        <ele>1189.2</ele>
        <time>2015-09-10T09:22:52Z</time>
      </trkpt>
      <trkpt lat="43.73498" lon="6.66088">
        <ele>1193.2</ele>
        <time>2015-09-10T09:30:03Z</time>
      </trkpt>
      <trkpt lat="43.73504" lon="6.66113">
        <ele>1194.03</ele>
        <time>2015-09-10T09:30:21Z</time>
      </trkpt>
      <trkpt lat="43.73509" lon="6.66137">
        <ele>1193.3</ele>
        <time>2015-09-10T09:30:41Z</time>
      </trkpt>
      <trkpt lat="43.73513" lon="6.66162">
        <ele>1192</ele>
        <time>2015-09-10T09:31:00Z</time>
      </trkpt>
      <trkpt lat="43.73525" lon="6.66181">
        <ele>1191.13</ele>
        <time>2015-09-10T09:31:17Z</time>
      </trkpt>
      <trkpt lat="43.7354" lon="6.66196">
        <ele>1190.53</ele>
        <time>2015-09-10T09:31:34Z</time>
      </trkpt>
      <trkpt lat="43.7355" lon="6.66217">
        <ele>1190.94</ele>
        <time>2015-09-10T09:31:53Z</time>
      </trkpt>
      <trkpt lat="43.73555" lon="6.66241">
        <ele>1190.02</ele>
        <time>2015-09-10T09:32:10Z</time>
      </trkpt>
      <trkpt lat="43.7356" lon="6.66265">
        <ele>1188.31</ele>
        <time>2015-09-10T09:32:31Z</time>
      </trkpt>
      <trkpt lat="43.73556" lon="6.66292">
        <ele>1187.65</ele>
        <time>2015-09-10T09:32:51Z</time>
      </trkpt>
      <trkpt lat="43.73551" lon="6.66317">
        <ele>1189.51</ele>
        <time>2015-09-10T09:33:08Z</time>
      </trkpt>
      <trkpt lat="43.73552" lon="6.66342">
        <ele>1191.11</ele>
        <time>2015-09-10T09:33:39Z</time>
      </trkpt>
      <trkpt lat="43.73542" lon="6.66363">
        <ele>1192.71</ele>
        <time>2015-09-10T09:33:59Z</time>
      </trkpt>
      <trkpt lat="43.73534" lon="6.66387">
        <ele>1194.66</ele>
        <time>2015-09-10T09:34:18Z</time>
      </trkpt>
      <trkpt lat="43.73529" lon="6.66412">
        <ele>1195.62</ele>
        <time>2015-09-10T09:34:39Z</time>
      </trkpt>
      <trkpt lat="43.73522" lon="6.66436">
        <ele>1195.22</ele>
        <time>2015-09-10T09:34:55Z</time>
      </trkpt>
      <trkpt lat="43.73518" lon="6.66462">
        <ele>1193.84</ele>
        <time>2015-09-10T09:35:13Z</time>
      </trkpt>
      <trkpt lat="43.73514" lon="6.66486">
        <ele>1193.14</ele>
        <time>2015-09-10T09:35:30Z</time>
      </trkpt>
      <trkpt lat="43.73511" lon="6.66511">
        <ele>1192.71</ele>
        <time>2015-09-10T09:35:48Z</time>
      </trkpt>
      <trkpt lat="43.73509" lon="6.66537">
        <ele>1192.19</ele>
        <time>2015-09-10T09:36:04Z</time>
      </trkpt>
      <trkpt lat="43.73509" lon="6.66562">
        <ele>1191.89</ele>
        <time>2015-09-10T09:36:21Z</time>
      </trkpt>
      <trkpt lat="43.73506" lon="6.66588">
        <ele>1191.85</ele>
        <time>2015-09-10T09:36:41Z</time>
      </trkpt>
      <trkpt lat="43.73508" lon="6.66614">
        <ele>1191.42</ele>
        <time>2015-09-10T09:37:02Z</time>
      </trkpt>
      <trkpt lat="43.73519" lon="6.66635">
        <ele>1192.25</ele>
        <time>2015-09-10T09:37:22Z</time>
      </trkpt>
      <trkpt lat="43.7353" lon="6.66656">
        <ele>1192.65</ele>
        <time>2015-09-10T09:37:41Z</time>
      </trkpt>
      <trkpt lat="43.7354" lon="6.66677">
        <ele>1194.1</ele>
        <time>2015-09-10T09:38:02Z</time>
      </trkpt>
      <trkpt lat="43.73548" lon="6.667">
        <ele>1194.04</ele>
        <time>2015-09-10T09:38:20Z</time>
      </trkpt>
      <trkpt lat="43.73549" lon="6.66726">
        <ele>1195.42</ele>
        <time>2015-09-10T09:38:39Z</time>
      </trkpt>
      <trkpt lat="43.73557" lon="6.66748">
        <ele>1199.79</ele>
        <time>2015-09-10T09:39:05Z</time>
      </trkpt>
      <trkpt lat="43.73559" lon="6.66773">
        <ele>1203.6</ele>
        <time>2015-09-10T09:39:32Z</time>
      </trkpt>
      <trkpt lat="43.73563" lon="6.66797">
        <ele>1206.41</ele>
        <time>2015-09-10T09:40:00Z</time>
      </trkpt>
      <trkpt lat="43.73563" lon="6.66822">
        <ele>1209.75</ele>
        <time>2015-09-10T09:40:23Z</time>
      </trkpt>
      <trkpt lat="43.73569" lon="6.66846">
        <ele>1212.95</ele>
        <time>2015-09-10T09:40:48Z</time>
      </trkpt>
      <trkpt lat="43.73579" lon="6.66867">
        <ele>1215.72</ele>
        <time>2015-09-10T09:41:11Z</time>
      </trkpt>
      <trkpt lat="43.73588" lon="6.66889">
        <ele>1216.46</ele>
        <time>2015-09-10T09:41:33Z</time>
      </trkpt>
      <trkpt lat="43.73595" lon="6.66913">
        <ele>1218.92</ele>
        <time>2015-09-10T09:41:55Z</time>
      </trkpt>
      <trkpt lat="43.736" lon="6.66937">
        <ele>1221.62</ele>
        <time>2015-09-10T09:42:18Z</time>
      </trkpt>
      <trkpt lat="43.73608" lon="6.6696">
        <ele>1224.45</ele>
        <time>2015-09-10T09:42:43Z</time>
      </trkpt>
      <trkpt lat="43.73615" lon="6.66983">
        <ele>1227.4</ele>
        <time>2015-09-10T09:43:05Z</time>
      </trkpt>
      <trkpt lat="43.73625" lon="6.67005">
        <ele>1230.73</ele>
        <time>2015-09-10T09:43:26Z</time>
      </trkpt>
      <trkpt lat="43.73634" lon="6.67027">
        <ele>1232.09</ele>
        <time>2015-09-10T09:43:46Z</time>
      </trkpt>
      <trkpt lat="43.73635" lon="6.67052">
        <ele>1235.28</ele>
        <time>2015-09-10T09:44:14Z</time>
      </trkpt>
      <trkpt lat="43.73641" lon="6.67076">
        <ele>1237.47</ele>
        <time>2015-09-10T09:44:39Z</time>
      </trkpt>
      <trkpt lat="43.73642" lon="6.67102">
        <ele>1240.35</ele>
        <time>2015-09-10T09:45:01Z</time>
      </trkpt>
      <trkpt lat="43.73643" lon="6.67127">
        <ele>1244.18</ele>
        <time>2015-09-10T09:45:34Z</time>
      </trkpt>
      <trkpt lat="43.73642" lon="6.67152">
        <ele>1246.04</ele>
        <time>2015-09-10T09:46:06Z</time>
      </trkpt>
      <trkpt lat="43.73644" lon="6.67177">
        <ele>1250.77</ele>
        <time>2015-09-10T09:46:34Z</time>
      </trkpt>
      <trkpt lat="43.73649" lon="6.67201">
        <ele>1254.99</ele>
        <time>2015-09-10T09:47:02Z</time>
      </trkpt>
      <trkpt lat="43.73656" lon="6.67225">
        <ele>1259.71</ele>
        <time>2015-09-10T09:47:31Z</time>
      </trkpt>
      <trkpt lat="43.73666" lon="6.67248">
        <ele>1260.71</ele>
        <time>2015-09-10T09:47:57Z</time>
      </trkpt>
      <trkpt lat="43.7367" lon="6.67273">
        <ele>1261.53</ele>
        <time>2015-09-10T09:48:22Z</time>
      </trkpt>
      <trkpt lat="43.73676" lon="6.67297">
        <ele>1265.83</ele>
        <time>2015-09-10T09:48:46Z</time>
      </trkpt>
      <trkpt lat="43.73678" lon="6.67323">
        <ele>1269</ele>
        <time>2015-09-10T09:49:11Z</time>
      </trkpt>
      <trkpt lat="43.73681" lon="6.67347">
        <ele>1270.66</ele>
        <time>2015-09-10T09:49:33Z</time>
      </trkpt>
      <trkpt lat="43.73676" lon="6.67372">
        <ele>1273.23</ele>
        <time>2015-09-10T09:49:59Z</time>
      </trkpt>
      <trkpt lat="43.73662" lon="6.67387">
        <ele>1276.48</ele>
        <time>2015-09-10T09:50:27Z</time>
      </trkpt>
      <trkpt lat="43.73666" lon="6.67412">
        <ele>1278.2</ele>
        <time>2015-09-10T09:50:49Z</time>
      </trkpt>
      <trkpt lat="43.73677" lon="6.67432">
        <ele>1278.8</ele>
        <time>2015-09-10T09:51:08Z</time>
      </trkpt>
      <trkpt lat="43.73689" lon="6.67452">
        <ele>1279.61</ele>
        <time>2015-09-10T09:51:28Z</time>
      </trkpt>
      <trkpt lat="43.73694" lon="6.67477">
        <ele>1280.37</ele>
        <time>2015-09-10T09:51:47Z</time>
      </trkpt>
      <trkpt lat="43.73698" lon="6.67503">
        <ele>1280.95</ele>
        <time>2015-09-10T09:52:06Z</time>
      </trkpt>
      <trkpt lat="43.73708" lon="6.67524">
        <ele>1280.8</ele>
        <time>2015-09-10T09:52:27Z</time>
      </trkpt>
      <trkpt lat="43.73709" lon="6.6755">
        <ele>1281.65</ele>
        <time>2015-09-10T09:52:53Z</time>
      </trkpt>
      <trkpt lat="43.73716" lon="6.67573">
        <ele>1280.87</ele>
        <time>2015-09-10T09:53:13Z</time>
      </trkpt>
      <trkpt lat="43.73725" lon="6.67595">
        <ele>1278.45</ele>
        <time>2015-09-10T09:53:38Z</time>
      </trkpt>
      <trkpt lat="43.73732" lon="6.67618">
        <ele>1276.74</ele>
        <time>2015-09-10T09:54:02Z</time>
      </trkpt>
      <trkpt lat="43.7374" lon="6.67641">
        <ele>1275.8</ele>
        <time>2015-09-10T09:54:24Z</time>
      </trkpt>
      <trkpt lat="43.73751" lon="6.67662">
        <ele>1273.71</ele>
        <time>2015-09-10T09:54:50Z</time>
      </trkpt>
      <trkpt lat="43.73762" lon="6.67681">
        <ele>1270.26</ele>
        <time>2015-09-10T09:55:23Z</time>
      </trkpt>
      <trkpt lat="43.73754" lon="6.67659">
        <ele>1263.02</ele>
        <time>2015-09-10T09:59:38Z</time>
      </trkpt>
      <trkpt lat="43.73744" lon="6.67638">
        <ele>1265.74</ele>
        <time>2015-09-10T10:00:07Z</time>
      </trkpt>
      <trkpt lat="43.73736" lon="6.67616">
        <ele>1268.16</ele>
        <time>2015-09-10T10:00:33Z</time>
      </trkpt>
      <trkpt lat="43.73726" lon="6.67594">
        <ele>1270.38</ele>
        <time>2015-09-10T10:00:54Z</time>
      </trkpt>
      <trkpt lat="43.73719" lon="6.6757">
        <ele>1272.31</ele>
        <time>2015-09-10T10:01:14Z</time>
      </trkpt>
      <trkpt lat="43.73711" lon="6.67547">
        <ele>1275.17</ele>
        <time>2015-09-10T10:01:57Z</time>
      </trkpt>
      <trkpt lat="43.73707" lon="6.67522">
        <ele>1277.11</ele>
        <time>2015-09-10T10:02:19Z</time>
      </trkpt>
      <trkpt lat="43.73696" lon="6.67502">
        <ele>1278.25</ele>
        <time>2015-09-10T10:02:50Z</time>
      </trkpt>
      <trkpt lat="43.73674" lon="6.675">
        <ele>1292.84</ele>
        <time>2015-09-10T10:37:06Z</time>
      </trkpt>
      <trkpt lat="43.7369" lon="6.67489">
        <ele>1286.53</ele>
        <time>2015-09-10T10:41:10Z</time>
      </trkpt>
      <trkpt lat="43.73694" lon="6.67464">
        <ele>1286.04</ele>
        <time>2015-09-10T10:41:40Z</time>
      </trkpt>
      <trkpt lat="43.73694" lon="6.67439">
        <ele>1284.23</ele>
        <time>2015-09-10T10:43:06Z</time>
      </trkpt>
      <trkpt lat="43.73697" lon="6.67413">
        <ele>1283.87</ele>
        <time>2015-09-10T10:43:25Z</time>
      </trkpt>
      <trkpt lat="43.73702" lon="6.67389">
        <ele>1284.72</ele>
        <time>2015-09-10T10:43:45Z</time>
      </trkpt>
      <trkpt lat="43.7371" lon="6.67366">
        <ele>1282.84</ele>
        <time>2015-09-10T10:44:06Z</time>
      </trkpt>
      <trkpt lat="43.7372" lon="6.67344">
        <ele>1281.71</ele>
        <time>2015-09-10T10:44:24Z</time>
      </trkpt>
      <trkpt lat="43.73718" lon="6.67318">
        <ele>1282.2</ele>
        <time>2015-09-10T10:44:42Z</time>
      </trkpt>
      <trkpt lat="43.73714" lon="6.67293">
        <ele>1283.13</ele>
        <time>2015-09-10T10:45:00Z</time>
      </trkpt>
      <trkpt lat="43.73712" lon="6.67267">
        <ele>1282.76</ele>
        <time>2015-09-10T10:45:16Z</time>
      </trkpt>
      <trkpt lat="43.73711" lon="6.67242">
        <ele>1281.28</ele>
        <time>2015-09-10T10:45:34Z</time>
      </trkpt>
      <trkpt lat="43.73714" lon="6.67215">
        <ele>1279.6</ele>
        <time>2015-09-10T10:45:55Z</time>
      </trkpt>
      <trkpt lat="43.73722" lon="6.67192">
        <ele>1277.61</ele>
        <time>2015-09-10T10:46:15Z</time>
      </trkpt>
      <trkpt lat="43.73715" lon="6.67168">
        <ele>1275.7</ele>
        <time>2015-09-10T10:46:30Z</time>
      </trkpt>
      <trkpt lat="43.73707" lon="6.67144">
        <ele>1275.05</ele>
        <time>2015-09-10T10:46:47Z</time>
      </trkpt>
      <trkpt lat="43.737" lon="6.67121">
        <ele>1273.98</ele>
        <time>2015-09-10T10:47:03Z</time>
      </trkpt>
      <trkpt lat="43.73695" lon="6.67095">
        <ele>1272.83</ele>
        <time>2015-09-10T10:47:22Z</time>
      </trkpt>
      <trkpt lat="43.73689" lon="6.67072">
        <ele>1271.89</ele>
        <time>2015-09-10T10:47:41Z</time>
      </trkpt>
      <trkpt lat="43.73685" lon="6.67047">
        <ele>1270.58</ele>
        <time>2015-09-10T10:48:00Z</time>
      </trkpt>
      <trkpt lat="43.73679" lon="6.67023">
        <ele>1268.73</ele>
        <time>2015-09-10T10:48:17Z</time>
      </trkpt>
      <trkpt lat="43.73675" lon="6.66997">
        <ele>1265.99</ele>
        <time>2015-09-10T10:48:35Z</time>
      </trkpt>
      <trkpt lat="43.73671" lon="6.66972">
        <ele>1262.27</ele>
        <time>2015-09-10T10:48:57Z</time>
      </trkpt>
      <trkpt lat="43.73668" lon="6.66947">
        <ele>1260.97</ele>
        <time>2015-09-10T10:49:13Z</time>
      </trkpt>
      <trkpt lat="43.73668" lon="6.66921">
        <ele>1258.83</ele>
        <time>2015-09-10T10:49:32Z</time>
      </trkpt>
      <trkpt lat="43.73667" lon="6.66895">
        <ele>1256.92</ele>
        <time>2015-09-10T10:49:49Z</time>
      </trkpt>
      <trkpt lat="43.73666" lon="6.6687">
        <ele>1255.2</ele>
        <time>2015-09-10T10:50:07Z</time>
      </trkpt>
      <trkpt lat="43.73662" lon="6.66845">
        <ele>1253.48</ele>
        <time>2015-09-10T10:50:23Z</time>
      </trkpt>
      <trkpt lat="43.73657" lon="6.6682">
        <ele>1251.7</ele>
        <time>2015-09-10T10:50:41Z</time>
      </trkpt>
      <trkpt lat="43.73656" lon="6.66795">
        <ele>1250.26</ele>
        <time>2015-09-10T10:50:59Z</time>
      </trkpt>
      <trkpt lat="43.73654" lon="6.6677">
        <ele>1248.19</ele>
        <time>2015-09-10T10:51:17Z</time>
      </trkpt>
      <trkpt lat="43.73652" lon="6.66744">
        <ele>1245.85</ele>
        <time>2015-09-10T10:51:35Z</time>
      </trkpt>
      <trkpt lat="43.73649" lon="6.66719">
        <ele>1244.7</ele>
        <time>2015-09-10T10:51:49Z</time>
      </trkpt>
      <trkpt lat="43.73646" lon="6.66694">
        <ele>1243.14</ele>
        <time>2015-09-10T10:52:10Z</time>
      </trkpt>
      <trkpt lat="43.73644" lon="6.66668">
        <ele>1241.89</ele>
        <time>2015-09-10T10:52:25Z</time>
      </trkpt>
      <trkpt lat="43.73648" lon="6.66643">
        <ele>1240.9</ele>
        <time>2015-09-10T10:52:43Z</time>
      </trkpt>
      <trkpt lat="43.73651" lon="6.66617">
        <ele>1240.24</ele>
        <time>2015-09-10T10:53:02Z</time>
      </trkpt>
      <trkpt lat="43.73642" lon="6.66595">
        <ele>1240.55</ele>
        <time>2015-09-10T10:53:17Z</time>
      </trkpt>
      <trkpt lat="43.73634" lon="6.66571">
        <ele>1239.16</ele>
        <time>2015-09-10T10:53:38Z</time>
      </trkpt>
      <trkpt lat="43.73625" lon="6.66548">
        <ele>1237.91</ele>
        <time>2015-09-10T10:53:51Z</time>
      </trkpt>
      <trkpt lat="43.73615" lon="6.66526">
        <ele>1236.65</ele>
        <time>2015-09-10T10:54:08Z</time>
      </trkpt>
      <trkpt lat="43.73606" lon="6.66504">
        <ele>1234.31</ele>
        <time>2015-09-10T10:54:25Z</time>
      </trkpt>
      <trkpt lat="43.73602" lon="6.66479">
        <ele>1232.2</ele>
        <time>2015-09-10T10:54:43Z</time>
      </trkpt>
      <trkpt lat="43.73605" lon="6.66454">
        <ele>1230.4</ele>
        <time>2015-09-10T10:55:01Z</time>
      </trkpt>
      <trkpt lat="43.73604" lon="6.66428">
        <ele>1228.02</ele>
        <time>2015-09-10T10:55:20Z</time>
      </trkpt>
      <trkpt lat="43.73598" lon="6.66405">
        <ele>1226.2</ele>
        <time>2015-09-10T10:55:38Z</time>
      </trkpt>
      <trkpt lat="43.73596" lon="6.66379">
        <ele>1224.18</ele>
        <time>2015-09-10T10:55:53Z</time>
      </trkpt>
      <trkpt lat="43.736" lon="6.66354">
        <ele>1223.3</ele>
        <time>2015-09-10T10:56:10Z</time>
      </trkpt>
      <trkpt lat="43.73605" lon="6.6633">
        <ele>1221.89</ele>
        <time>2015-09-10T10:56:25Z</time>
      </trkpt>
      <trkpt lat="43.73609" lon="6.66305">
        <ele>1220.47</ele>
        <time>2015-09-10T10:56:42Z</time>
      </trkpt>
      <trkpt lat="43.73609" lon="6.66279">
        <ele>1219.59</ele>
        <time>2015-09-10T10:56:59Z</time>
      </trkpt>
      <trkpt lat="43.73605" lon="6.66254">
        <ele>1219.14</ele>
        <time>2015-09-10T10:57:16Z</time>
      </trkpt>
      <trkpt lat="43.73597" lon="6.66231">
        <ele>1218.51</ele>
        <time>2015-09-10T10:57:34Z</time>
      </trkpt>
      <trkpt lat="43.73583" lon="6.66213">
        <ele>1217.11</ele>
        <time>2015-09-10T10:57:50Z</time>
      </trkpt>
      <trkpt lat="43.73571" lon="6.66195">
        <ele>1215.82</ele>
        <time>2015-09-10T10:58:04Z</time>
      </trkpt>
      <trkpt lat="43.73558" lon="6.66176">
        <ele>1213.59</ele>
        <time>2015-09-10T10:58:22Z</time>
      </trkpt>
      <trkpt lat="43.73543" lon="6.66161">
        <ele>1210.87</ele>
        <time>2015-09-10T10:58:41Z</time>
      </trkpt>
      <trkpt lat="43.73529" lon="6.66143">
        <ele>1208.08</ele>
        <time>2015-09-10T10:58:57Z</time>
      </trkpt>
      <trkpt lat="43.7352" lon="6.66119">
        <ele>1207.24</ele>
        <time>2015-09-10T10:59:17Z</time>
      </trkpt>
      <trkpt lat="43.73515" lon="6.66094">
        <ele>1206.91</ele>
        <time>2015-09-10T10:59:32Z</time>
      </trkpt>
      <trkpt lat="43.73515" lon="6.66069">
        <ele>1204.46</ele>
        <time>2015-09-10T11:00:33Z</time>
      </trkpt>
      <trkpt lat="43.73517" lon="6.66044">
        <ele>1202.54</ele>
        <time>2015-09-10T11:00:47Z</time>
      </trkpt>
      <trkpt lat="43.73517" lon="6.66018">
        <ele>1200.76</ele>
        <time>2015-09-10T11:01:03Z</time>
      </trkpt>
      <trkpt lat="43.73515" lon="6.65993">
        <ele>1200.99</ele>
        <time>2015-09-10T11:01:20Z</time>
      </trkpt>
      <trkpt lat="43.73513" lon="6.65968">
        <ele>1200.07</ele>
        <time>2015-09-10T11:01:34Z</time>
      </trkpt>
      <trkpt lat="43.73511" lon="6.65943">
        <ele>1199.56</ele>
        <time>2015-09-10T11:01:48Z</time>
      </trkpt>
      <trkpt lat="43.73514" lon="6.65917">
        <ele>1198.33</ele>
        <time>2015-09-10T11:02:05Z</time>
      </trkpt>
      <trkpt lat="43.7352" lon="6.65893">
        <ele>1197.01</ele>
        <time>2015-09-10T11:02:21Z</time>
      </trkpt>
      <trkpt lat="43.7353" lon="6.6587">
        <ele>1197.4</ele>
        <time>2015-09-10T11:02:40Z</time>
      </trkpt>
      <trkpt lat="43.73543" lon="6.6585">
        <ele>1198.75</ele>
        <time>2015-09-10T11:02:57Z</time>
      </trkpt>
      <trkpt lat="43.73547" lon="6.65823">
        <ele>1198.77</ele>
        <time>2015-09-10T11:03:12Z</time>
      </trkpt>
      <trkpt lat="43.73553" lon="6.658">
        <ele>1199.98</ele>
        <time>2015-09-10T11:03:29Z</time>
      </trkpt>
      <trkpt lat="43.73563" lon="6.65779">
        <ele>1201.06</ele>
        <time>2015-09-10T11:03:43Z</time>
      </trkpt>
      <trkpt lat="43.73573" lon="6.65757">
        <ele>1202.49</ele>
        <time>2015-09-10T11:03:59Z</time>
      </trkpt>
      <trkpt lat="43.73579" lon="6.65734">
        <ele>1202.63</ele>
        <time>2015-09-10T11:04:15Z</time>
      </trkpt>
      <trkpt lat="43.73576" lon="6.65708">
        <ele>1202.54</ele>
        <time>2015-09-10T11:04:31Z</time>
      </trkpt>
      <trkpt lat="43.73566" lon="6.65686">
        <ele>1202.43</ele>
        <time>2015-09-10T11:04:46Z</time>
      </trkpt>
      <trkpt lat="43.73559" lon="6.65662">
        <ele>1202.11</ele>
        <time>2015-09-10T11:05:00Z</time>
      </trkpt>
      <trkpt lat="43.73558" lon="6.65636">
        <ele>1202.18</ele>
        <time>2015-09-10T11:05:13Z</time>
      </trkpt>
      <trkpt lat="43.73565" lon="6.65612">
        <ele>1202.05</ele>
        <time>2015-09-10T11:05:29Z</time>
      </trkpt>
      <trkpt lat="43.73571" lon="6.65588">
        <ele>1201.54</ele>
        <time>2015-09-10T11:05:43Z</time>
      </trkpt>
      <trkpt lat="43.73576" lon="6.65562">
        <ele>1201.35</ele>
        <time>2015-09-10T11:05:58Z</time>
      </trkpt>
      <trkpt lat="43.73579" lon="6.65536">
        <ele>1201.04</ele>
        <time>2015-09-10T11:06:13Z</time>
      </trkpt>
      <trkpt lat="43.73584" lon="6.65512">
        <ele>1200.7</ele>
        <time>2015-09-10T11:06:28Z</time>
      </trkpt>
      <trkpt lat="43.73589" lon="6.65486">
        <ele>1201.3</ele>
        <time>2015-09-10T11:06:44Z</time>
      </trkpt>
      <trkpt lat="43.73576" lon="6.65468">
        <ele>1200.88</ele>
        <time>2015-09-10T11:06:58Z</time>
      </trkpt>
      <trkpt lat="43.73559" lon="6.65461">
        <ele>1200.47</ele>
        <time>2015-09-10T11:07:13Z</time>
      </trkpt>
      <trkpt lat="43.73542" lon="6.6545">
        <ele>1200.03</ele>
        <time>2015-09-10T11:07:27Z</time>
      </trkpt>
      <trkpt lat="43.73526" lon="6.65439">
        <ele>1199.43</ele>
        <time>2015-09-10T11:07:41Z</time>
      </trkpt>
      <trkpt lat="43.73511" lon="6.65423">
        <ele>1199.11</ele>
        <time>2015-09-10T11:07:56Z</time>
      </trkpt>
      <trkpt lat="43.73498" lon="6.65405">
        <ele>1198.27</ele>
        <time>2015-09-10T11:08:13Z</time>
      </trkpt>
      <trkpt lat="43.73487" lon="6.65384">
        <ele>1197.11</ele>
        <time>2015-09-10T11:08:30Z</time>
      </trkpt>
      <trkpt lat="43.73476" lon="6.65363">
        <ele>1195.97</ele>
        <time>2015-09-10T11:08:46Z</time>
      </trkpt>
      <trkpt lat="43.73465" lon="6.65344">
        <ele>1195.06</ele>
        <time>2015-09-10T11:09:04Z</time>
      </trkpt>
      <trkpt lat="43.73456" lon="6.65322">
        <ele>1194.67</ele>
        <time>2015-09-10T11:09:20Z</time>
      </trkpt>
      <trkpt lat="43.73445" lon="6.65301">
        <ele>1193.88</ele>
        <time>2015-09-10T11:09:33Z</time>
      </trkpt>
      <trkpt lat="43.73433" lon="6.65281">
        <ele>1193.26</ele>
        <time>2015-09-10T11:09:49Z</time>
      </trkpt>
      <trkpt lat="43.7342" lon="6.65263">
        <ele>1192.68</ele>
        <time>2015-09-10T11:10:09Z</time>
      </trkpt>
      <trkpt lat="43.73406" lon="6.65246">
        <ele>1191.88</ele>
        <time>2015-09-10T11:10:26Z</time>
      </trkpt>
      <trkpt lat="43.73395" lon="6.65227">
        <ele>1190.96</ele>
        <time>2015-09-10T11:10:40Z</time>
      </trkpt>
      <trkpt lat="43.73382" lon="6.65207">
        <ele>1190.86</ele>
        <time>2015-09-10T11:10:54Z</time>
      </trkpt>
      <trkpt lat="43.73368" lon="6.6519">
        <ele>1191.63</ele>
        <time>2015-09-10T11:11:11Z</time>
      </trkpt>
      <trkpt lat="43.73354" lon="6.65174">
        <ele>1192.39</ele>
        <time>2015-09-10T11:11:26Z</time>
      </trkpt>
      <trkpt lat="43.73342" lon="6.65153">
        <ele>1193.2</ele>
        <time>2015-09-10T11:11:43Z</time>
      </trkpt>
      <trkpt lat="43.73333" lon="6.6513">
        <ele>1192.34</ele>
        <time>2015-09-10T11:12:00Z</time>
      </trkpt>
      <trkpt lat="43.73323" lon="6.65108">
        <ele>1191.33</ele>
        <time>2015-09-10T11:12:13Z</time>
      </trkpt>
      <trkpt lat="43.73314" lon="6.65085">
        <ele>1190.51</ele>
        <time>2015-09-10T11:12:28Z</time>
      </trkpt>
      <trkpt lat="43.73308" lon="6.65062">
        <ele>1190.14</ele>
        <time>2015-09-10T11:12:42Z</time>
      </trkpt>
      <trkpt lat="43.73303" lon="6.65037">
        <ele>1190.64</ele>
        <time>2015-09-10T11:12:58Z</time>
      </trkpt>
      <trkpt lat="43.73298" lon="6.65012">
        <ele>1191.07</ele>
        <time>2015-09-10T11:13:15Z</time>
      </trkpt>
      <trkpt lat="43.73296" lon="6.64986">
        <ele>1191.04</ele>
        <time>2015-09-10T11:13:31Z</time>
      </trkpt>
      <trkpt lat="43.73291" lon="6.64961">
        <ele>1191.4</ele>
        <time>2015-09-10T11:13:47Z</time>
      </trkpt>
      <trkpt lat="43.73287" lon="6.64936">
        <ele>1191.42</ele>
        <time>2015-09-10T11:14:01Z</time>
      </trkpt>
      <trkpt lat="43.73278" lon="6.64913">
        <ele>1191.15</ele>
        <time>2015-09-10T11:14:18Z</time>
      </trkpt>
      <trkpt lat="43.7327" lon="6.64889">
        <ele>1189.49</ele>
        <time>2015-09-10T11:14:33Z</time>
      </trkpt>
      <trkpt lat="43.7326" lon="6.64868">
        <ele>1189.6</ele>
        <time>2015-09-10T11:14:47Z</time>
      </trkpt>
      <trkpt lat="43.73254" lon="6.64844">
        <ele>1189.99</ele>
        <time>2015-09-10T11:15:06Z</time>
      </trkpt>
      <trkpt lat="43.73247" lon="6.6482">
        <ele>1189.06</ele>
        <time>2015-09-10T11:15:22Z</time>
      </trkpt>
      <trkpt lat="43.73243" lon="6.64795">
        <ele>1188.27</ele>
        <time>2015-09-10T11:15:35Z</time>
      </trkpt>
      <trkpt lat="43.73242" lon="6.64768">
        <ele>1188.01</ele>
        <time>2015-09-10T11:15:50Z</time>
      </trkpt>
      <trkpt lat="43.73231" lon="6.64748">
        <ele>1188.79</ele>
        <time>2015-09-10T11:16:06Z</time>
      </trkpt>
      <trkpt lat="43.73219" lon="6.64727">
        <ele>1188.72</ele>
        <time>2015-09-10T11:16:24Z</time>
      </trkpt>
      <trkpt lat="43.73207" lon="6.64706">
        <ele>1187.87</ele>
        <time>2015-09-10T11:16:38Z</time>
      </trkpt>
      <trkpt lat="43.73199" lon="6.64683">
        <ele>1186.58</ele>
        <time>2015-09-10T11:16:54Z</time>
      </trkpt>
      <trkpt lat="43.73185" lon="6.64666">
        <ele>1184.78</ele>
        <time>2015-09-10T11:17:14Z</time>
      </trkpt>
      <trkpt lat="43.7317" lon="6.6465">
        <ele>1183.11</ele>
        <time>2015-09-10T11:17:30Z</time>
      </trkpt>
      <trkpt lat="43.73156" lon="6.64633">
        <ele>1181.85</ele>
        <time>2015-09-10T11:17:44Z</time>
      </trkpt>
      <trkpt lat="43.7314" lon="6.64621">
        <ele>1180.63</ele>
        <time>2015-09-10T11:18:01Z</time>
      </trkpt>
      <trkpt lat="43.73127" lon="6.64603">
        <ele>1178.35</ele>
        <time>2015-09-10T11:18:20Z</time>
      </trkpt>
      <trkpt lat="43.73125" lon="6.64578">
        <ele>1177.4</ele>
        <time>2015-09-10T11:18:36Z</time>
      </trkpt>
      <trkpt lat="43.7312" lon="6.64553">
        <ele>1176.11</ele>
        <time>2015-09-10T11:18:52Z</time>
      </trkpt>
      <trkpt lat="43.73113" lon="6.64529">
        <ele>1174.16</ele>
        <time>2015-09-10T11:19:10Z</time>
      </trkpt>
      <trkpt lat="43.73105" lon="6.64506">
        <ele>1171.76</ele>
        <time>2015-09-10T11:19:29Z</time>
      </trkpt>
      <trkpt lat="43.73102" lon="6.64481">
        <ele>1168.71</ele>
        <time>2015-09-10T11:19:48Z</time>
      </trkpt>
      <trkpt lat="43.731" lon="6.64455">
        <ele>1167.69</ele>
        <time>2015-09-10T11:20:05Z</time>
      </trkpt>
      <trkpt lat="43.73099" lon="6.6443">
        <ele>1166.43</ele>
        <time>2015-09-10T11:20:21Z</time>
      </trkpt>
      <trkpt lat="43.731" lon="6.64404">
        <ele>1163.19</ele>
        <time>2015-09-10T11:20:41Z</time>
      </trkpt>
      <trkpt lat="43.731" lon="6.64378">
        <ele>1160.56</ele>
        <time>2015-09-10T11:20:59Z</time>
      </trkpt>
      <trkpt lat="43.73095" lon="6.64354">
        <ele>1158.43</ele>
        <time>2015-09-10T11:21:16Z</time>
      </trkpt>
      <trkpt lat="43.7309" lon="6.6433">
        <ele>1156.03</ele>
        <time>2015-09-10T11:21:32Z</time>
      </trkpt>
      <trkpt lat="43.73089" lon="6.64304">
        <ele>1151.94</ele>
        <time>2015-09-10T11:21:50Z</time>
      </trkpt>
      <trkpt lat="43.7309" lon="6.64278">
        <ele>1148.45</ele>
        <time>2015-09-10T11:22:05Z</time>
      </trkpt>
      <trkpt lat="43.73098" lon="6.64256">
        <ele>1143.72</ele>
        <time>2015-09-10T11:22:23Z</time>
      </trkpt>
      <trkpt lat="43.73108" lon="6.64234">
        <ele>1139.7</ele>
        <time>2015-09-10T11:22:42Z</time>
      </trkpt>
      <trkpt lat="43.73113" lon="6.6421">
        <ele>1137.3</ele>
        <time>2015-09-10T11:22:57Z</time>
      </trkpt>
      <trkpt lat="43.73114" lon="6.64185">
        <ele>1134.18</ele>
        <time>2015-09-10T11:23:15Z</time>
      </trkpt>
      <trkpt lat="43.7311" lon="6.64159">
        <ele>1131.62</ele>
        <time>2015-09-10T11:23:33Z</time>
      </trkpt>
      <trkpt lat="43.73105" lon="6.64135">
        <ele>1129.45</ele>
        <time>2015-09-10T11:23:51Z</time>
      </trkpt>
      <trkpt lat="43.731" lon="6.6411">
        <ele>1127.8</ele>
        <time>2015-09-10T11:24:07Z</time>
      </trkpt>
      <trkpt lat="43.73094" lon="6.64087">
        <ele>1124.3</ele>
        <time>2015-09-10T11:24:23Z</time>
      </trkpt>
      <trkpt lat="43.73085" lon="6.64064">
        <ele>1121.98</ele>
        <time>2015-09-10T11:24:39Z</time>
      </trkpt>
      <trkpt lat="43.73082" lon="6.64038">
        <ele>1118.92</ele>
        <time>2015-09-10T11:24:57Z</time>
      </trkpt>
      <trkpt lat="43.73086" lon="6.64013">
        <ele>1116.16</ele>
        <time>2015-09-10T11:25:14Z</time>
      </trkpt>
      <trkpt lat="43.73086" lon="6.63987">
        <ele>1114.47</ele>
        <time>2015-09-10T11:25:31Z</time>
      </trkpt>
      <trkpt lat="43.73088" lon="6.63961">
        <ele>1112.5</ele>
        <time>2015-09-10T11:25:48Z</time>
      </trkpt>
      <trkpt lat="43.73088" lon="6.63935">
        <ele>1108.32</ele>
        <time>2015-09-10T11:26:03Z</time>
      </trkpt>
      <trkpt lat="43.73086" lon="6.6391">
        <ele>1105.83</ele>
        <time>2015-09-10T11:26:22Z</time>
      </trkpt>
      <trkpt lat="43.73079" lon="6.63886">
        <ele>1106.18</ele>
        <time>2015-09-10T11:26:41Z</time>
      </trkpt>
      <trkpt lat="43.73064" lon="6.63898">
        <ele>1104.54</ele>
        <time>2015-09-10T11:27:02Z</time>
      </trkpt>
      <trkpt lat="43.73062" lon="6.63924">
        <ele>1103.44</ele>
        <time>2015-09-10T11:27:24Z</time>
      </trkpt>
      <trkpt lat="43.73051" lon="6.63945">
        <ele>1102.58</ele>
        <time>2015-09-10T11:27:41Z</time>
      </trkpt>
      <trkpt lat="43.73039" lon="6.63964">
        <ele>1100.3</ele>
        <time>2015-09-10T11:28:03Z</time>
      </trkpt>
      <trkpt lat="43.73024" lon="6.63981">
        <ele>1099.69</ele>
        <time>2015-09-10T11:28:20Z</time>
      </trkpt>
      <trkpt lat="43.73009" lon="6.63995">
        <ele>1099.07</ele>
        <time>2015-09-10T11:28:38Z</time>
      </trkpt>
      <trkpt lat="43.72992" lon="6.64009">
        <ele>1098.34</ele>
        <time>2015-09-10T11:28:53Z</time>
      </trkpt>
      <trkpt lat="43.72975" lon="6.64017">
        <ele>1089.23</ele>
        <time>2015-09-10T11:30:38Z</time>
      </trkpt>
      <trkpt lat="43.72964" lon="6.64039">
        <ele>1085.29</ele>
        <time>2015-09-10T11:32:01Z</time>
      </trkpt>
      <trkpt lat="43.7295" lon="6.64056">
        <ele>1086.79</ele>
        <time>2015-09-10T11:32:19Z</time>
      </trkpt>
      <trkpt lat="43.72941" lon="6.64033">
        <ele>1087.28</ele>
        <time>2015-09-10T11:32:51Z</time>
      </trkpt>
      <trkpt lat="43.72953" lon="6.64014">
        <ele>1087.04</ele>
        <time>2015-09-10T11:33:12Z</time>
      </trkpt>
      <trkpt lat="43.72967" lon="6.63996">
        <ele>1087.76</ele>
        <time>2015-09-10T11:33:25Z</time>
      </trkpt>
      <trkpt lat="43.72978" lon="6.63974">
        <ele>1088.44</ele>
        <time>2015-09-10T11:33:42Z</time>
      </trkpt>
      <trkpt lat="43.72984" lon="6.6395">
        <ele>1087.2</ele>
        <time>2015-09-10T11:34:00Z</time>
      </trkpt>
      <trkpt lat="43.72986" lon="6.63924">
        <ele>1086.09</ele>
        <time>2015-09-10T11:34:19Z</time>
      </trkpt>
      <trkpt lat="43.72994" lon="6.63901">
        <ele>1084.27</ele>
        <time>2015-09-10T11:34:40Z</time>
      </trkpt>
      <trkpt lat="43.72997" lon="6.63876">
        <ele>1082.52</ele>
        <time>2015-09-10T11:35:01Z</time>
      </trkpt>
      <trkpt lat="43.73" lon="6.63851">
        <ele>1079.57</ele>
        <time>2015-09-10T11:35:14Z</time>
      </trkpt>
      <trkpt lat="43.73003" lon="6.63826">
        <ele>1077.83</ele>
        <time>2015-09-10T11:35:30Z</time>
      </trkpt>
      <trkpt lat="43.73012" lon="6.63804">
        <ele>1075.97</ele>
        <time>2015-09-10T11:35:49Z</time>
      </trkpt>
      <trkpt lat="43.73018" lon="6.63779">
        <ele>1075.27</ele>
        <time>2015-09-10T11:36:04Z</time>
      </trkpt>
      <trkpt lat="43.73023" lon="6.63755">
        <ele>1074.05</ele>
        <time>2015-09-10T11:36:20Z</time>
      </trkpt>
      <trkpt lat="43.73018" lon="6.63729">
        <ele>1072.76</ele>
        <time>2015-09-10T11:36:28Z</time>
      </trkpt>
      <trkpt lat="43.73019" lon="6.63703">
        <ele>1073.53</ele>
        <time>2015-09-10T11:36:48Z</time>
      </trkpt>
      <trkpt lat="43.73022" lon="6.63678">
        <ele>1075.9</ele>
        <time>2015-09-10T11:37:09Z</time>
      </trkpt>
      <trkpt lat="43.73025" lon="6.63653">
        <ele>1076.4</ele>
        <time>2015-09-10T11:37:33Z</time>
      </trkpt>
      <trkpt lat="43.73027" lon="6.63628">
        <ele>1074.47</ele>
        <time>2015-09-10T11:37:53Z</time>
      </trkpt>
      <trkpt lat="43.73029" lon="6.63602">
        <ele>1074.01</ele>
        <time>2015-09-10T11:38:09Z</time>
      </trkpt>
      <trkpt lat="43.73027" lon="6.63576">
        <ele>1074.06</ele>
        <time>2015-09-10T11:38:30Z</time>
      </trkpt>
      <trkpt lat="43.73031" lon="6.63551">
        <ele>1074.7</ele>
        <time>2015-09-10T11:38:45Z</time>
      </trkpt>
      <trkpt lat="43.73041" lon="6.63529">
        <ele>1075.32</ele>
        <time>2015-09-10T11:39:01Z</time>
      </trkpt>
      <trkpt lat="43.73049" lon="6.63506">
        <ele>1074.49</ele>
        <time>2015-09-10T11:39:19Z</time>
      </trkpt>
      <trkpt lat="43.73063" lon="6.63488">
        <ele>1073.66</ele>
        <time>2015-09-10T11:39:35Z</time>
      </trkpt>
      <trkpt lat="43.73073" lon="6.63467">
        <ele>1073.44</ele>
        <time>2015-09-10T11:39:53Z</time>
      </trkpt>
      <trkpt lat="43.73083" lon="6.63445">
        <ele>1073.04</ele>
        <time>2015-09-10T11:40:11Z</time>
      </trkpt>
      <trkpt lat="43.73088" lon="6.63419">
        <ele>1070.97</ele>
        <time>2015-09-10T11:40:27Z</time>
      </trkpt>
      <trkpt lat="43.73094" lon="6.63395">
        <ele>1069.83</ele>
        <time>2015-09-10T11:40:44Z</time>
      </trkpt>
      <trkpt lat="43.73098" lon="6.6337">
        <ele>1068.48</ele>
        <time>2015-09-10T11:41:02Z</time>
      </trkpt>
      <trkpt lat="43.73098" lon="6.63344">
        <ele>1067.68</ele>
        <time>2015-09-10T11:41:17Z</time>
      </trkpt>
      <trkpt lat="43.73107" lon="6.63322">
        <ele>1065.95</ele>
        <time>2015-09-10T11:41:35Z</time>
      </trkpt>
      <trkpt lat="43.73114" lon="6.63298">
        <ele>1066.48</ele>
        <time>2015-09-10T11:41:56Z</time>
      </trkpt>
      <trkpt lat="43.73122" lon="6.63276">
        <ele>1065.55</ele>
        <time>2015-09-10T11:42:17Z</time>
      </trkpt>
      <trkpt lat="43.73124" lon="6.63249">
        <ele>1061.07</ele>
        <time>2015-09-10T11:42:38Z</time>
      </trkpt>
      <trkpt lat="43.73125" lon="6.63224">
        <ele>1057.82</ele>
        <time>2015-09-10T11:42:54Z</time>
      </trkpt>
      <trkpt lat="43.73125" lon="6.63198">
        <ele>1058.17</ele>
        <time>2015-09-10T11:43:02Z</time>
      </trkpt>
      <trkpt lat="43.73125" lon="6.63173">
        <ele>1058.88</ele>
        <time>2015-09-10T11:43:16Z</time>
      </trkpt>
      <trkpt lat="43.73124" lon="6.63148">
        <ele>1059.11</ele>
        <time>2015-09-10T11:43:34Z</time>
      </trkpt>
      <trkpt lat="43.73134" lon="6.63127">
        <ele>1059.64</ele>
        <time>2015-09-10T11:43:54Z</time>
      </trkpt>
      <trkpt lat="43.73149" lon="6.63113">
        <ele>1060.22</ele>
        <time>2015-09-10T11:44:10Z</time>
      </trkpt>
      <trkpt lat="43.73162" lon="6.63094">
        <ele>1058.84</ele>
        <time>2015-09-10T11:44:33Z</time>
      </trkpt>
      <trkpt lat="43.73177" lon="6.63077">
        <ele>1057.1</ele>
        <time>2015-09-10T11:44:46Z</time>
      </trkpt>
      <trkpt lat="43.73187" lon="6.63055">
        <ele>1057.36</ele>
        <time>2015-09-10T11:45:05Z</time>
      </trkpt>
      <trkpt lat="43.73197" lon="6.63031">
        <ele>1055.77</ele>
        <time>2015-09-10T11:45:20Z</time>
      </trkpt>
      <trkpt lat="43.73202" lon="6.63007">
        <ele>1051.92</ele>
        <time>2015-09-10T11:45:41Z</time>
      </trkpt>
      <trkpt lat="43.73209" lon="6.62982">
        <ele>1048.76</ele>
        <time>2015-09-10T11:45:57Z</time>
      </trkpt>
      <trkpt lat="43.73218" lon="6.62959">
        <ele>1045.89</ele>
        <time>2015-09-10T11:46:16Z</time>
      </trkpt>
      <trkpt lat="43.73223" lon="6.62934">
        <ele>1044.28</ele>
        <time>2015-09-10T11:46:31Z</time>
      </trkpt>
      <trkpt lat="43.7323" lon="6.62911">
        <ele>1044.23</ele>
        <time>2015-09-10T11:49:31Z</time>
      </trkpt>
      <trkpt lat="43.73227" lon="6.62887">
        <ele>1042.37</ele>
        <time>2015-09-10T11:49:46Z</time>
      </trkpt>
      <trkpt lat="43.73218" lon="6.62865">
        <ele>1041.13</ele>
        <time>2015-09-10T11:50:05Z</time>
      </trkpt>
      <trkpt lat="43.73227" lon="6.62842">
        <ele>1038.94</ele>
        <time>2015-09-10T11:50:25Z</time>
      </trkpt>
      <trkpt lat="43.73237" lon="6.62821">
        <ele>1037.29</ele>
        <time>2015-09-10T11:50:42Z</time>
      </trkpt>
      <trkpt lat="43.73245" lon="6.62797">
        <ele>1035.62</ele>
        <time>2015-09-10T11:51:00Z</time>
      </trkpt>
      <trkpt lat="43.73259" lon="6.62781">
        <ele>1033.15</ele>
        <time>2015-09-10T11:51:19Z</time>
      </trkpt>
      <trkpt lat="43.73275" lon="6.6277">
        <ele>1031.42</ele>
        <time>2015-09-10T11:51:35Z</time>
      </trkpt>
      <trkpt lat="43.73289" lon="6.62751">
        <ele>1029.67</ele>
        <time>2015-09-10T11:51:59Z</time>
      </trkpt>
      <trkpt lat="43.73296" lon="6.62727">
        <ele>1026.93</ele>
        <time>2015-09-10T11:52:17Z</time>
      </trkpt>
      <trkpt lat="43.73305" lon="6.62705">
        <ele>1025.55</ele>
        <time>2015-09-10T11:52:40Z</time>
      </trkpt>
      <trkpt lat="43.73318" lon="6.62687">
        <ele>1023.49</ele>
        <time>2015-09-10T11:52:53Z</time>
      </trkpt>
      <trkpt lat="43.73332" lon="6.62671">
        <ele>1018.46</ele>
        <time>2015-09-10T11:54:56Z</time>
      </trkpt>
      <trkpt lat="43.73349" lon="6.62661">
        <ele>1014.78</ele>
        <time>2015-09-10T11:55:44Z</time>
      </trkpt>
      <trkpt lat="43.73367" lon="6.62655">
        <ele>1013.68</ele>
        <time>2015-09-10T11:56:06Z</time>
      </trkpt>
      <trkpt lat="43.73382" lon="6.62639">
        <ele>1008.92</ele>
        <time>2015-09-10T12:02:12Z</time>
      </trkpt>
      <trkpt lat="43.73394" lon="6.62619">
        <ele>1007.87</ele>
        <time>2015-09-10T12:02:28Z</time>
      </trkpt>
      <trkpt lat="43.73401" lon="6.62596">
        <ele>1007.44</ele>
        <time>2015-09-10T12:02:45Z</time>
      </trkpt>
      <trkpt lat="43.73393" lon="6.62574">
        <ele>1006.27</ele>
        <time>2015-09-10T12:03:01Z</time>
      </trkpt>
      <trkpt lat="43.73387" lon="6.62549">
        <ele>1005.53</ele>
        <time>2015-09-10T12:03:18Z</time>
      </trkpt>
      <trkpt lat="43.73378" lon="6.62527">
        <ele>1005.23</ele>
        <time>2015-09-10T12:03:36Z</time>
      </trkpt>
      <trkpt lat="43.73391" lon="6.62509">
        <ele>1002.46</ele>
        <time>2015-09-10T12:03:59Z</time>
      </trkpt>
      <trkpt lat="43.73408" lon="6.62503">
        <ele>1001.63</ele>
        <time>2015-09-10T12:04:17Z</time>
      </trkpt>
      <trkpt lat="43.73424" lon="6.62489">
        <ele>999.68</ele>
        <time>2015-09-10T12:04:36Z</time>
      </trkpt>
      <trkpt lat="43.73434" lon="6.62468">
        <ele>996.68</ele>
        <time>2015-09-10T12:04:55Z</time>
      </trkpt>
      <trkpt lat="43.73431" lon="6.62443">
        <ele>995</ele>
        <time>2015-09-10T12:05:28Z</time>
      </trkpt>
    </trkseg>
  </trk>
</gpx>